createdAt,value
2022-08-17T00:01:51.754Z,98519.38
2022-08-17T00:04:41.453Z,98531.22
2022-08-17T00:07:28.375Z,98544.78
2022-08-17T00:10:15.309Z,98536.56
2022-08-17T00:13:07.976Z,98536.13
2022-08-17T00:16:01.457Z,98537.22
2022-08-17T00:19:02.000Z,98535.72
2022-08-17T00:22:33.213Z,98520.28
2022-08-17T00:25:12.947Z,98492.94
2022-08-17T00:27:59.911Z,98473.50
2022-08-17T00:30:52.845Z,98548.88
2022-08-17T00:33:42.376Z,98531.59
2022-08-17T00:39:10.068Z,98540.53
2022-08-17T00:41:59.277Z,98491.97
2022-08-17T00:44:46.502Z,98523.25
2022-08-17T00:47:33.660Z,98474.75
2022-08-17T00:50:20.631Z,98518.22
2022-08-17T00:53:12.564Z,98492.84
2022-08-17T00:56:02.912Z,98487.31
2022-08-17T00:58:52.235Z,98500.31
2022-08-17T01:01:39.569Z,98525.13
2022-08-17T01:04:36.212Z,98530.34
2022-08-17T01:07:24.719Z,98505.69
2022-08-17T01:10:58.228Z,98483.25
2022-08-17T01:13:25.164Z,98495.88
2022-08-17T01:16:31.544Z,98493.53
2022-08-17T01:19:22.666Z,98518.22
2022-08-17T01:22:12.549Z,98480.91
2022-08-17T01:25:02.023Z,98431.28
2022-08-17T01:27:51.206Z,98440.56
2022-08-17T01:30:57.297Z,98427.09
2022-08-17T01:33:46.219Z,98463.75
2022-08-17T01:36:35.851Z,98422.47
2022-08-17T01:39:28.575Z,98490.31
2022-08-17T01:42:25.949Z,98333.44
2022-08-17T01:45:17.816Z,98300.88
2022-08-17T01:48:04.925Z,98309.44
2022-08-17T01:50:52.640Z,98350.38
2022-08-17T01:53:42.698Z,98316.53
2022-08-17T01:56:30.394Z,98290.56
2022-08-17T01:59:19.367Z,98310.84
2022-08-17T02:02:07.386Z,98268.47
2022-08-17T02:04:54.224Z,98313.38
2022-08-17T02:07:56.015Z,98279.31
2022-08-17T02:10:48.828Z,98240.16
2022-08-17T02:13:35.756Z,98244.22
2022-08-17T02:16:22.581Z,98257.56
2022-08-17T02:19:12.883Z,98294.59
2022-08-17T02:21:59.714Z,98281.91
2022-08-17T02:24:59.568Z,98236.84
2022-08-17T02:27:48.745Z,98269.81
2022-08-17T02:31:00.816Z,98289.13
2022-08-17T02:33:41.521Z,98291.31
2022-08-17T02:36:12.221Z,98303.84
2022-08-17T02:38:41.631Z,98342.44
2022-08-17T02:41:09.415Z,98267.03
2022-08-17T02:43:38.959Z,98230.19
2022-08-17T02:46:08.006Z,98248.25
2022-08-17T02:48:34.558Z,98273.41
2022-08-17T02:51:01.408Z,98276.25
2022-08-17T02:53:35.940Z,98228.84
2022-08-17T02:56:02.821Z,98173.03
2022-08-17T02:58:35.522Z,98172.78
2022-08-17T03:01:05.157Z,98229.75
2022-08-17T03:03:31.985Z,98213.16
2022-08-17T03:06:01.267Z,98247.34
2022-08-17T03:08:30.421Z,98258.72
2022-08-17T03:10:57.188Z,98204.34
2022-08-17T03:13:27.150Z,98209.72
2022-08-17T03:15:53.965Z,98224.63
2022-08-17T03:18:24.628Z,98208.75
2022-08-17T03:20:54.113Z,98183.09
2022-08-17T03:23:24.139Z,98214.72
2022-08-17T03:25:52.906Z,98181.59
2022-08-17T03:28:19.717Z,98145.19
2022-08-17T03:30:46.372Z,98179.78
2022-08-17T03:33:13.078Z,98176.25
2022-08-17T03:35:42.015Z,98174.56
2022-08-17T03:38:15.302Z,98178.28
2022-08-17T03:40:56.705Z,98165.88
2022-08-17T03:43:32.694Z,98177.81
2022-08-17T03:46:34.253Z,98178.63
2022-08-17T03:49:25.673Z,98156.19
2022-08-17T03:52:12.491Z,98172.63
2022-08-17T03:54:58.386Z,98144.84
2022-08-17T03:57:27.315Z,98128.59
2022-08-17T03:59:55.224Z,98147.00
2022-08-17T04:02:25.607Z,98170.09
2022-08-17T04:04:52.717Z,98177.25
2022-08-17T04:07:24.955Z,98193.19
2022-08-17T04:09:51.729Z,98214.63
2022-08-17T04:12:21.130Z,98211.31
2022-08-17T04:14:53.000Z,98197.09
2022-08-17T04:17:27.208Z,98216.00
2022-08-17T04:19:59.357Z,98222.72
2022-08-17T04:22:30.333Z,98214.63
2022-08-17T04:25:02.470Z,98231.56
2022-08-17T04:27:28.986Z,98222.00
2022-08-17T04:29:56.194Z,98239.38
2022-08-17T04:33:03.605Z,98229.34
2022-08-17T04:35:11.667Z,98229.34
2022-08-17T04:37:38.172Z,98201.22
2022-08-17T04:40:27.437Z,98224.81
2022-08-17T04:43:08.916Z,98254.25
2022-08-17T04:45:55.701Z,98242.00
2022-08-17T04:48:28.087Z,98274.66
2022-08-17T04:51:04.087Z,98309.09
2022-08-17T04:53:30.640Z,98286.84
2022-08-17T04:55:58.947Z,98318.66
2022-08-17T04:58:25.845Z,98368.56
2022-08-17T05:00:52.563Z,98319.78
2022-08-17T05:03:21.493Z,98300.75
2022-08-17T05:05:53.657Z,98334.59
2022-08-17T05:08:21.520Z,98394.47
2022-08-17T05:10:50.691Z,98412.41
2022-08-17T05:13:20.512Z,98397.44
2022-08-17T05:15:49.395Z,98483.00
2022-08-17T05:18:19.178Z,98507.97
2022-08-17T05:20:48.140Z,98511.41
2022-08-17T05:23:23.222Z,98478.88
2022-08-17T05:25:51.810Z,98483.91
2022-08-17T05:28:22.908Z,98513.63
2022-08-17T05:30:58.713Z,98517.03
2022-08-17T05:33:28.763Z,98552.56
2022-08-17T05:36:05.038Z,98567.25
2022-08-17T05:38:34.168Z,98567.66
2022-08-17T05:41:05.397Z,98574.16
2022-08-17T05:43:35.201Z,98533.88
2022-08-17T05:46:22.165Z,98450.13
2022-08-17T05:48:52.623Z,98236.03
2022-08-17T05:51:42.630Z,97980.47
2022-08-17T05:54:20.416Z,97825.78
2022-08-17T05:56:58.110Z,97802.72
2022-08-17T05:59:53.355Z,97715.69
2022-08-17T06:02:45.539Z,97663.84
2022-08-17T06:05:34.251Z,97526.84
2022-08-17T06:08:19.242Z,97451.56
2022-08-17T06:11:04.071Z,97466.84
2022-08-17T06:13:58.686Z,97526.78
2022-08-17T06:16:34.829Z,97594.47
2022-08-17T06:19:17.046Z,97693.34
2022-08-17T06:21:47.884Z,97740.00
2022-08-17T06:24:23.853Z,97737.72
2022-08-17T06:26:55.822Z,97751.41
2022-08-17T06:29:27.151Z,97775.28
2022-08-17T06:31:53.684Z,97773.81
2022-08-17T06:34:22.460Z,97709.91
2022-08-17T06:37:17.085Z,97720.94
2022-08-17T06:39:48.599Z,97714.19
2022-08-17T06:42:59.870Z,97709.09
2022-08-17T06:45:36.961Z,97817.31
2022-08-17T06:48:12.533Z,97837.66
2022-08-17T06:50:52.290Z,97820.84
2022-08-17T06:53:32.798Z,97734.53
2022-08-17T06:56:13.472Z,97474.28
2022-08-17T06:58:43.293Z,97411.75
2022-08-17T07:01:18.115Z,97429.44
2022-08-17T07:03:54.503Z,97521.69
2022-08-17T07:06:24.982Z,97464.84
2022-08-17T07:09:10.202Z,97559.22
2022-08-17T07:14:48.115Z,97733.91
2022-08-17T07:17:18.250Z,97679.22
2022-08-17T07:19:55.554Z,97727.13
2022-08-17T07:22:25.529Z,97684.34
2022-08-17T07:24:53.484Z,97669.00
2022-08-17T07:27:25.047Z,97799.41
2022-08-17T07:29:59.420Z,97798.78
2022-08-17T07:32:37.400Z,97886.22
2022-08-17T07:35:15.366Z,97907.25
2022-08-17T07:37:54.021Z,97894.84
2022-08-17T07:40:26.966Z,97908.72
2022-08-17T07:43:22.328Z,97922.50
2022-08-17T07:46:29.878Z,97920.53
2022-08-17T07:49:16.283Z,97817.25
2022-08-17T07:51:42.732Z,97860.75
2022-08-17T07:54:15.387Z,97873.34
2022-08-17T07:56:47.108Z,97889.25
2022-08-17T07:59:28.660Z,97911.53
2022-08-17T08:02:05.384Z,97860.69
2022-08-17T08:05:02.112Z,97916.59
2022-08-17T08:07:43.206Z,97915.88
2022-08-17T08:10:13.717Z,97866.31
2022-08-17T08:12:46.912Z,97909.34
2022-08-17T08:15:23.272Z,97874.19
2022-08-17T08:17:50.053Z,97873.97
2022-08-17T08:20:42.417Z,97879.22
2022-08-17T08:23:15.538Z,97902.03
2022-08-17T08:25:53.316Z,97905.91
2022-08-17T08:28:44.925Z,97880.16
2022-08-17T08:31:32.145Z,97881.38
2022-08-17T08:34:09.339Z,97893.91
2022-08-17T08:37:17.715Z,97875.38
2022-08-17T08:40:24.756Z,97905.94
2022-08-17T08:43:53.053Z,97878.09
2022-08-17T08:47:08.994Z,97864.59
2022-08-17T08:50:30.151Z,97866.16
2022-08-17T08:53:09.259Z,97866.31
2022-08-17T08:55:36.582Z,97837.16
2022-08-17T08:58:31.538Z,97849.06
2022-08-17T09:00:59.780Z,97832.97
2022-08-17T09:04:16.982Z,97852.31
2022-08-17T09:06:59.285Z,97821.41
2022-08-17T09:09:49.500Z,97853.91
2022-08-17T09:12:35.605Z,97858.31
2022-08-17T09:15:20.592Z,97854.19
2022-08-17T09:18:08.650Z,97828.00
2022-08-17T09:20:50.237Z,97806.31
2022-08-17T09:23:30.320Z,97805.34
2022-08-17T09:26:13.484Z,97811.22
2022-08-17T09:28:49.204Z,97787.88
2022-08-17T09:31:23.982Z,97799.47
2022-08-17T09:33:58.586Z,97806.75
2022-08-17T09:36:35.514Z,97814.75
2022-08-17T09:39:08.589Z,97813.16
2022-08-17T09:41:48.707Z,97823.06
2022-08-17T09:44:27.219Z,97817.56
2022-08-17T09:47:04.505Z,97809.25
2022-08-17T09:49:37.494Z,97800.06
2022-08-17T09:52:13.697Z,97806.00
2022-08-17T09:54:41.215Z,97791.03
2022-08-17T09:57:29.650Z,97778.66
2022-08-17T10:00:21.333Z,97795.97
2022-08-17T10:02:50.427Z,97839.00
2022-08-17T10:05:38.482Z,97817.06
2022-08-17T10:08:43.457Z,97847.22
2022-08-17T10:11:51.350Z,97817.53
2022-08-17T10:14:53.325Z,97790.34
2022-08-17T10:17:35.075Z,97810.13
2022-08-17T10:20:25.584Z,97788.31
2022-08-17T10:23:26.856Z,97789.41
2022-08-17T10:26:16.544Z,97772.41
2022-08-17T10:28:52.665Z,97774.22
2022-08-17T10:31:34.582Z,97798.28
2022-08-17T10:34:22.659Z,97833.03
2022-08-17T10:37:06.624Z,97868.38
2022-08-17T10:39:52.721Z,97898.56
2022-08-17T10:42:52.364Z,97900.56
2022-08-17T10:45:23.397Z,97899.41
2022-08-17T10:48:06.322Z,97884.47
2022-08-17T10:50:49.368Z,97885.34
2022-08-17T10:53:31.149Z,97882.19
2022-08-17T10:56:17.403Z,97912.16
2022-08-17T10:59:30.224Z,97916.53
2022-08-17T11:02:08.852Z,97910.34
2022-08-17T11:05:16.822Z,97914.44
2022-08-17T11:08:25.935Z,97914.44
2022-08-17T11:11:14.533Z,97888.66
2022-08-17T11:14:06.766Z,97896.41
2022-08-17T11:16:51.560Z,97907.31
2022-08-17T11:19:39.737Z,97902.72
2022-08-17T11:22:33.414Z,97907.56
2022-08-17T11:25:35.576Z,97915.72
2022-08-17T11:28:25.599Z,97899.66
2022-08-17T11:30:59.355Z,97900.13
2022-08-17T11:33:29.592Z,97898.69
2022-08-17T11:36:19.614Z,97912.72
2022-08-17T11:39:03.031Z,97911.09
2022-08-17T11:41:56.029Z,97910.69
2022-08-17T11:44:40.508Z,97939.16
2022-08-17T11:47:41.953Z,97914.88
2022-08-17T11:50:30.119Z,97917.06
2022-08-17T11:52:56.751Z,97925.56
2022-08-17T11:55:35.820Z,97933.44
2022-08-17T11:58:23.689Z,97926.06
2022-08-17T12:00:52.085Z,97927.53
2022-08-17T12:03:26.611Z,97931.84
2022-08-17T12:06:05.613Z,97922.16
2022-08-17T12:08:34.350Z,97910.00
2022-08-17T12:11:00.875Z,97916.34
2022-08-17T12:13:34.638Z,97919.69
2022-08-17T12:16:08.201Z,97900.91
2022-08-17T12:18:39.510Z,97899.16
2022-08-17T12:21:30.724Z,97897.69
2022-08-17T12:24:15.861Z,97906.84
2022-08-17T12:26:51.590Z,97900.44
2022-08-17T12:29:38.392Z,97906.91
2022-08-17T12:32:16.498Z,97898.72
2022-08-17T12:34:45.303Z,97892.97
2022-08-17T12:37:22.709Z,97880.78
2022-08-17T12:39:57.943Z,97880.44
2022-08-17T12:42:29.821Z,97873.59
2022-08-17T12:44:56.833Z,97883.28
2022-08-17T12:47:23.701Z,97873.22
2022-08-17T12:49:55.154Z,97881.38
2022-08-17T12:52:25.892Z,97873.78
2022-08-17T12:55:06.141Z,97881.72
2022-08-17T12:57:51.596Z,97884.88
2022-08-17T13:00:25.336Z,97886.22
2022-08-17T13:03:09.452Z,97883.63
2022-08-17T13:06:06.097Z,97882.34
2022-08-17T13:08:44.356Z,97884.25
2022-08-17T13:11:13.608Z,97876.06
2022-08-17T13:13:44.072Z,97879.53
2022-08-17T13:16:19.205Z,97865.84
2022-08-17T13:18:54.388Z,97868.59
2022-08-17T13:21:23.778Z,97879.72
2022-08-17T13:24:05.859Z,97879.53
2022-08-17T13:26:44.866Z,97855.22
2022-08-17T13:29:36.989Z,97872.84
2022-08-17T13:32:13.574Z,97874.91
2022-08-17T13:35:13.082Z,97852.41
2022-08-17T13:38:04.910Z,97852.09
2022-08-17T13:40:35.749Z,97859.22
2022-08-17T13:43:05.423Z,97864.44
2022-08-17T13:45:38.939Z,97855.56
2022-08-17T13:48:08.688Z,97856.03
2022-08-17T13:50:40.349Z,97852.56
2022-08-17T13:53:31.347Z,97847.44
2022-08-17T13:56:07.438Z,97845.91
2022-08-17T13:58:56.162Z,97833.94
2022-08-17T14:01:34.337Z,97836.09
2022-08-17T14:04:08.196Z,97826.59
2022-08-17T14:07:01.209Z,97810.94
2022-08-17T14:09:36.823Z,97812.25
2022-08-17T14:12:10.514Z,97812.09
2022-08-17T14:14:42.943Z,97815.59
2022-08-17T14:17:10.635Z,97818.28
2022-08-17T14:19:42.254Z,97814.25
2022-08-17T14:22:23.643Z,97805.91
2022-08-17T14:24:51.688Z,97811.03
2022-08-17T14:27:20.358Z,97808.56
2022-08-17T14:29:50.176Z,97804.50
2022-08-17T14:32:25.791Z,97804.13
2022-08-17T14:34:57.666Z,97808.84
2022-08-17T14:37:27.896Z,97800.59
2022-08-17T14:39:59.773Z,97794.19
2022-08-17T14:42:29.662Z,97793.09
2022-08-17T14:44:58.686Z,97782.94
2022-08-17T14:47:30.511Z,97771.31
2022-08-17T14:49:57.156Z,97713.38
2022-08-17T14:52:26.014Z,97725.16
2022-08-17T14:54:53.091Z,97713.06
2022-08-17T14:57:24.612Z,97694.44
2022-08-17T15:00:01.214Z,97673.78
2022-08-17T15:02:42.090Z,97693.91
2022-08-17T15:05:08.979Z,97657.16
2022-08-17T15:07:37.971Z,97650.31
2022-08-17T15:10:12.519Z,97652.31
2022-08-17T15:12:43.981Z,97627.13
2022-08-17T15:15:13.781Z,97597.88
2022-08-17T15:17:44.781Z,97556.53
2022-08-17T15:20:19.536Z,97523.56
2022-08-17T15:22:50.084Z,97583.66
2022-08-17T15:25:17.991Z,97583.66
2022-08-17T15:27:44.630Z,97568.59
2022-08-17T15:30:11.964Z,97566.44
2022-08-17T15:32:40.799Z,97531.13
2022-08-17T15:35:09.096Z,97551.69
2022-08-17T15:37:38.887Z,97507.91
2022-08-17T15:40:07.645Z,97516.09
2022-08-17T15:42:37.503Z,97490.66
2022-08-17T15:45:16.876Z,97456.41
2022-08-17T15:47:46.441Z,97475.84
2022-08-17T15:50:15.299Z,97510.88
2022-08-17T15:52:44.777Z,97473.94
2022-08-17T15:55:13.293Z,97476.41
2022-08-17T15:57:40.707Z,97460.81
2022-08-17T16:00:09.603Z,97467.94
2022-08-17T16:03:46.051Z,97443.09
2022-08-17T16:05:30.172Z,97437.31
2022-08-17T16:07:59.573Z,97375.72
2022-08-17T16:10:34.839Z,97404.50
2022-08-17T16:13:03.726Z,97419.56
2022-08-17T16:15:31.569Z,97396.25
2022-08-17T16:18:00.617Z,97428.56
2022-08-17T16:20:27.577Z,97404.22
2022-08-17T16:22:54.983Z,97426.09
2022-08-17T16:25:52.089Z,97405.00
2022-08-17T16:28:16.639Z,97445.25
2022-08-17T16:30:43.304Z,97421.44
2022-08-17T16:33:11.550Z,97443.63
2022-08-17T16:35:38.638Z,97423.91
2022-08-17T16:38:05.348Z,97407.50
2022-08-17T16:40:37.186Z,97396.00
2022-08-17T16:43:06.922Z,97409.16
2022-08-17T16:45:36.419Z,97382.03
2022-08-17T16:48:08.913Z,97389.16
2022-08-17T16:50:37.667Z,97384.78
2022-08-17T16:53:10.822Z,97338.84
2022-08-17T16:55:37.638Z,97379.09
2022-08-17T16:58:08.691Z,97350.34
2022-08-17T17:00:36.127Z,97370.59
2022-08-17T17:03:17.041Z,97341.59
2022-08-17T17:06:18.758Z,97315.38
2022-08-17T17:08:48.426Z,97295.94
2022-08-17T17:11:19.742Z,97220.19
2022-08-17T17:14:03.202Z,97280.38
2022-08-17T17:16:46.121Z,97275.16
2022-08-17T17:19:41.600Z,97255.22
2022-08-17T17:22:26.796Z,97247.31
2022-08-17T17:25:11.559Z,97194.84
2022-08-17T17:27:52.741Z,97239.94
2022-08-17T17:30:22.472Z,97225.44
2022-08-17T17:33:28.893Z,97179.25
2022-08-17T17:36:01.668Z,97208.50
2022-08-17T17:38:37.693Z,97195.63
2022-08-17T17:41:12.059Z,97189.38
2022-08-17T17:43:39.994Z,97196.47
2022-08-17T17:46:27.062Z,97190.16
2022-08-17T17:48:59.111Z,97176.53
2022-08-17T17:52:09.264Z,97176.22
2022-08-17T17:54:49.301Z,97169.41
2022-08-17T17:57:22.251Z,97154.38
2022-08-17T17:59:54.822Z,97166.63
2022-08-17T18:02:51.279Z,97135.50
2022-08-17T18:05:44.392Z,97128.69
2022-08-17T18:08:32.220Z,97148.06
2022-08-17T18:11:11.638Z,97132.47
2022-08-17T18:13:56.542Z,97115.84
2022-08-17T18:16:29.624Z,97124.00
2022-08-17T18:19:02.833Z,97106.22
2022-08-17T18:21:44.349Z,97100.78
2022-08-17T18:24:13.621Z,97111.34
2022-08-17T18:26:45.096Z,97111.31
2022-08-17T18:29:13.990Z,97097.88
2022-08-17T18:31:44.653Z,97108.50
2022-08-17T18:34:47.379Z,97109.84
2022-08-17T18:37:33.716Z,97106.03
2022-08-17T18:40:20.183Z,97099.19
2022-08-17T18:42:58.880Z,97114.94
2022-08-17T18:45:33.506Z,97115.44
2022-08-17T18:48:00.512Z,97123.63
2022-08-17T18:50:43.812Z,97124.38
2022-08-17T18:53:36.085Z,97128.69
2022-08-17T18:56:23.894Z,97127.56
2022-08-17T18:58:56.796Z,97136.72
2022-08-17T19:01:46.925Z,97136.03
2022-08-17T19:04:32.751Z,97150.47
2022-08-17T19:07:18.973Z,97161.22
2022-08-17T19:09:50.621Z,97160.06
2022-08-17T19:12:29.099Z,97164.31
2022-08-17T19:14:57.971Z,97158.25
2022-08-17T19:17:55.156Z,97188.38
2022-08-17T19:20:37.796Z,97188.88
2022-08-17T19:23:14.693Z,97176.59
2022-08-17T19:25:49.141Z,97180.03
2022-08-17T19:28:27.256Z,97178.66
2022-08-17T19:31:05.712Z,97174.03
2022-08-17T19:33:34.846Z,97178.81
2022-08-17T19:36:28.497Z,97193.47
2022-08-17T19:39:12.204Z,97176.84
2022-08-17T19:41:43.714Z,97180.63
2022-08-17T19:44:38.304Z,97193.16
2022-08-17T19:47:54.814Z,97193.59
2022-08-17T19:50:38.978Z,97227.66
2022-08-17T19:53:36.867Z,97219.84
2022-08-17T19:56:31.627Z,97234.53
2022-08-17T19:59:24.719Z,97234.31
2022-08-17T20:02:00.970Z,97217.75
2022-08-17T20:04:31.949Z,97212.00
2022-08-17T20:07:07.946Z,97196.78
2022-08-17T20:09:54.478Z,97204.56
2022-08-17T20:12:30.457Z,97201.34
2022-08-17T20:15:13.012Z,97206.50
2022-08-17T20:17:42.378Z,97281.53
2022-08-17T20:20:21.240Z,97236.84
2022-08-17T20:22:57.388Z,97231.69
2022-08-17T20:25:32.271Z,97241.47
2022-08-17T20:28:27.790Z,97240.81
2022-08-17T20:30:55.611Z,97235.53
2022-08-17T20:33:38.387Z,97291.28
2022-08-17T20:36:04.895Z,97258.81
2022-08-17T20:38:39.466Z,97271.28
2022-08-17T20:41:12.249Z,97259.31
2022-08-17T20:43:38.769Z,97279.78
2022-08-17T20:46:08.135Z,97275.78
2022-08-17T20:48:40.295Z,97275.53
2022-08-17T20:51:27.464Z,97296.91
2022-08-17T20:53:53.909Z,97315.94
2022-08-17T20:56:49.633Z,97325.97
2022-08-17T20:59:25.570Z,97315.72
2022-08-17T21:02:17.608Z,97343.41
2022-08-17T21:05:30.062Z,97328.78
2022-08-17T21:08:21.543Z,97331.31
2022-08-17T21:12:03.306Z,97341.34
2022-08-17T21:14:38.235Z,97325.91
2022-08-17T21:17:29.425Z,97350.78
2022-08-17T21:21:12.987Z,97391.81
2022-08-17T21:24:35.762Z,97377.53
2022-08-17T21:27:39.403Z,97411.00
2022-08-17T21:30:30.539Z,97390.50
2022-08-17T21:33:25.395Z,97406.25
2022-08-17T21:36:15.111Z,97423.47
2022-08-17T21:39:10.323Z,97418.16
2022-08-17T21:41:58.358Z,97414.59
2022-08-17T21:44:50.281Z,97403.47
2022-08-17T21:47:43.235Z,97410.88
2022-08-17T21:50:30.093Z,97414.19
2022-08-17T21:53:40.232Z,97432.47
2022-08-17T21:56:38.621Z,97414.78
2022-08-17T21:59:32.878Z,97425.97
2022-08-17T22:02:25.596Z,97429.09
2022-08-17T22:05:14.373Z,97446.84
2022-08-17T22:08:08.591Z,97463.66
2022-08-17T22:11:05.877Z,97448.75
2022-08-17T22:13:57.272Z,97445.78
2022-08-17T22:17:22.225Z,97465.81
2022-08-17T22:20:14.636Z,97462.50
2022-08-17T22:23:19.897Z,97473.88
2022-08-17T22:26:12.568Z,97443.53
2022-08-17T22:29:02.104Z,97449.53
2022-08-17T22:31:58.140Z,97452.72
2022-08-17T22:34:44.947Z,97473.56
2022-08-17T22:37:31.876Z,97472.09
2022-08-17T22:40:31.848Z,97469.06
2022-08-17T22:43:26.409Z,97486.88
2022-08-17T22:46:15.182Z,97493.66
2022-08-17T22:49:02.095Z,97484.34
2022-08-17T22:51:49.084Z,97487.09
2022-08-17T22:54:54.580Z,97496.06
2022-08-17T22:58:04.397Z,97470.41
2022-08-17T23:00:51.528Z,97494.59
2022-08-17T23:03:55.825Z,97506.72
2022-08-17T23:06:42.772Z,97483.56
2022-08-17T23:09:29.884Z,97481.78
2022-08-17T23:12:23.944Z,97476.16
2022-08-17T23:15:15.534Z,97474.88
2022-08-17T23:18:04.584Z,97504.31
2022-08-17T23:20:54.060Z,97524.38
2022-08-17T23:23:41.335Z,97490.75
2022-08-17T23:26:29.844Z,97499.38
2022-08-17T23:29:16.930Z,97511.53
2022-08-17T23:32:07.071Z,97498.16
2022-08-17T23:34:53.935Z,97505.00
2022-08-17T23:37:41.380Z,97504.19
2022-08-17T23:40:29.356Z,97510.84
2022-08-17T23:43:23.416Z,97508.78
2022-08-17T23:46:12.760Z,97560.34
2022-08-17T23:49:00.409Z,97544.25
2022-08-17T23:51:48.799Z,97534.88
2022-08-17T23:54:43.418Z,97539.44
2022-08-17T23:57:33.913Z,97530.50
